createdAt,value
2022-11-09T00:06:37.167Z,11.45
2022-11-09T00:14:15.488Z,11.42
2022-11-09T00:21:50.679Z,11.41
2022-11-09T00:29:24.355Z,11.46
2022-11-09T00:36:59.389Z,11.48
2022-11-09T00:44:32.857Z,11.44
2022-11-09T00:52:08.061Z,11.46
2022-11-09T00:59:42.027Z,11.46
2022-11-09T01:07:17.150Z,11.44
2022-11-09T01:14:50.835Z,11.40
2022-11-09T01:22:26.043Z,11.32
2022-11-09T01:29:59.787Z,11.24
2022-11-09T01:37:35.057Z,11.18
2022-11-09T01:45:29.783Z,11.14
2022-11-09T01:53:09.625Z,11.09
2022-11-09T02:00:45.995Z,10.99
2022-11-09T02:08:24.562Z,10.96
2022-11-09T02:15:58.371Z,10.94
2022-11-09T02:23:34.054Z,10.83
2022-11-09T02:31:11.773Z,10.71
2022-11-09T02:38:46.725Z,10.66
2022-11-09T02:46:28.205Z,10.63
2022-11-09T02:54:03.905Z,10.60
2022-11-09T03:01:37.650Z,10.54
2022-11-09T03:09:13.706Z,10.51
2022-11-09T03:16:50.520Z,10.64
2022-11-09T03:24:26.180Z,10.71
2022-11-09T03:32:00.155Z,10.77
2022-11-09T03:39:35.183Z,10.81
2022-11-09T03:47:08.777Z,10.82
2022-11-09T03:54:43.901Z,10.84
2022-11-09T04:02:17.538Z,10.89
2022-11-09T04:09:52.551Z,10.92
2022-11-09T04:17:26.109Z,10.99
2022-11-09T04:25:01.018Z,11.02
2022-11-09T04:32:34.833Z,11.03
2022-11-09T04:40:11.658Z,10.99
2022-11-09T04:47:45.663Z,10.95
2022-11-09T04:55:20.925Z,10.94
2022-11-09T05:02:54.633Z,10.96
2022-11-09T05:10:29.962Z,10.96
2022-11-09T05:18:04.724Z,11.00
2022-11-09T05:25:39.834Z,11.04
2022-11-09T05:33:14.247Z,11.04
2022-11-09T05:40:50.486Z,11.05
2022-11-09T05:48:24.120Z,11.14
2022-11-09T05:56:02.878Z,11.16
2022-11-09T06:03:36.728Z,11.21
2022-11-09T06:11:18.264Z,11.26
2022-11-09T06:18:55.341Z,11.24
2022-11-09T06:26:30.603Z,11.32
2022-11-09T06:34:04.772Z,11.33
2022-11-09T06:41:43.348Z,11.36
2022-11-09T06:49:20.784Z,11.35
2022-11-09T06:56:56.507Z,11.36
2022-11-09T07:04:30.120Z,11.34
2022-11-09T07:12:05.411Z,11.31
2022-11-09T07:19:39.304Z,11.28
2022-11-09T07:27:15.555Z,11.18
2022-11-09T07:34:49.282Z,11.09
2022-11-09T07:42:24.697Z,11.12
2022-11-09T07:49:58.513Z,11.14
2022-11-09T07:57:34.881Z,11.17
2022-11-09T08:05:08.912Z,11.19
2022-11-09T08:12:44.250Z,11.21
2022-11-09T08:20:18.244Z,11.21
2022-11-09T08:27:53.827Z,11.25
2022-11-09T08:35:28.551Z,11.27
2022-11-09T08:43:06.390Z,11.30
2022-11-09T08:50:40.175Z,11.32
2022-11-09T08:58:15.530Z,11.37
2022-11-09T09:05:49.381Z,11.41
2022-11-09T09:13:24.817Z,11.51
2022-11-09T09:20:58.608Z,11.61
2022-11-09T09:28:34.861Z,11.76
2022-11-09T09:36:09.515Z,11.93
2022-11-09T09:43:47.511Z,12.07
2022-11-09T09:51:30.006Z,12.12
2022-11-09T09:59:12.387Z,12.17
2022-11-09T10:07:00.186Z,12.26
2022-11-09T10:15:03.540Z,12.26
2022-11-09T10:22:47.995Z,12.29
2022-11-09T10:30:25.146Z,12.30
2022-11-09T10:37:58.864Z,12.43
2022-11-09T10:45:36.238Z,12.60
2022-11-09T10:53:18.519Z,12.79
2022-11-09T11:01:02.426Z,12.96
2022-11-09T11:08:42.180Z,13.10
2022-11-09T11:16:29.695Z,13.28
2022-11-09T11:24:15.316Z,13.36
2022-11-09T11:31:50.465Z,13.44
2022-11-09T11:39:35.403Z,13.50
2022-11-09T11:47:21.147Z,13.70
2022-11-09T11:55:11.590Z,13.81
2022-11-09T12:03:27.658Z,13.79
2022-11-09T12:11:16.907Z,13.87
2022-11-09T12:19:03.091Z,13.96
2022-11-09T12:27:10.940Z,14.15
2022-11-09T12:34:57.127Z,14.24
2022-11-09T12:42:38.299Z,14.25
2022-11-09T12:50:18.356Z,14.33
2022-11-09T12:57:55.827Z,14.35
2022-11-09T13:05:35.466Z,14.38
2022-11-09T13:13:24.891Z,14.33
2022-11-09T13:21:35.989Z,14.33
2022-11-09T13:29:22.602Z,14.29
2022-11-09T13:37:29.936Z,14.26
2022-11-09T13:45:30.471Z,14.24
2022-11-09T13:53:05.133Z,14.23
2022-11-09T14:00:47.285Z,14.21
2022-11-09T14:08:24.697Z,14.17
2022-11-09T14:16:06.504Z,14.12
2022-11-09T14:23:40.490Z,14.06
2022-11-09T14:31:26.908Z,14.00
2022-11-09T14:39:02.778Z,13.94
2022-11-09T14:46:38.155Z,13.88
2022-11-09T14:54:15.645Z,13.80
2022-11-09T15:02:03.814Z,13.71
2022-11-09T15:09:45.038Z,13.60
2022-11-09T15:17:25.380Z,13.53
2022-11-09T15:24:59.151Z,13.45
2022-11-09T15:32:40.349Z,13.34
2022-11-09T15:40:17.038Z,13.24
2022-11-09T15:47:54.302Z,13.11
2022-11-09T15:55:28.794Z,13.04
2022-11-09T16:03:04.025Z,12.98
2022-11-09T16:10:39.896Z,12.92
2022-11-09T16:18:17.404Z,12.84
2022-11-09T16:25:52.876Z,12.79
2022-11-09T16:33:28.058Z,12.75
2022-11-09T16:41:04.363Z,12.72
2022-11-09T16:48:39.758Z,12.68
2022-11-09T16:56:13.789Z,12.63
2022-11-09T17:03:49.094Z,12.59
2022-11-09T17:11:22.910Z,12.53
2022-11-09T17:18:59.055Z,12.47
2022-11-09T17:26:33.635Z,12.39
2022-11-09T17:34:08.838Z,12.31
2022-11-09T17:41:43.047Z,12.28
2022-11-09T17:49:18.319Z,12.19
2022-11-09T17:56:52.448Z,12.12
2022-11-09T18:04:27.946Z,12.06
2022-11-09T18:12:01.720Z,12.08
2022-11-09T18:19:37.885Z,12.08
2022-11-09T18:27:11.610Z,12.12
2022-11-09T18:34:46.716Z,12.11
2022-11-09T18:42:20.484Z,12.15
2022-11-09T18:49:55.746Z,12.19
2022-11-09T18:57:29.604Z,12.14
2022-11-09T19:05:06.890Z,12.10
2022-11-09T19:12:40.818Z,12.03
2022-11-09T19:20:16.045Z,11.94
2022-11-09T19:27:49.995Z,11.83
2022-11-09T19:35:28.368Z,11.77
2022-11-09T19:43:05.004Z,11.72
2022-11-09T19:50:42.061Z,11.67
2022-11-09T19:58:18.937Z,11.59
2022-11-09T20:05:56.084Z,11.57
2022-11-09T20:13:33.739Z,11.50
2022-11-09T20:21:09.060Z,11.42
2022-11-09T20:28:42.859Z,11.37
2022-11-09T20:36:19.151Z,11.36
2022-11-09T20:43:53.113Z,11.28
2022-11-09T20:51:29.141Z,11.23
2022-11-09T20:59:02.834Z,11.17
2022-11-09T21:06:38.213Z,11.13
2022-11-09T21:14:12.511Z,11.07
2022-11-09T21:21:47.595Z,11.02
2022-11-09T21:29:39.572Z,10.95
2022-11-09T21:37:19.987Z,10.90
2022-11-09T21:44:53.838Z,10.87
2022-11-09T21:52:29.085Z,10.86
2022-11-09T22:00:02.948Z,10.88
2022-11-09T22:07:39.200Z,10.86
2022-11-09T22:15:30.466Z,10.86
2022-11-09T22:23:07.883Z,10.88
2022-11-09T22:30:41.829Z,10.95
2022-11-09T22:38:18.202Z,10.93
2022-11-09T22:45:52.186Z,10.93
2022-11-09T22:53:27.553Z,10.93
2022-11-09T23:01:07.532Z,10.93
2022-11-09T23:08:42.838Z,10.91
2022-11-09T23:16:16.739Z,11.08
2022-11-09T23:23:52.679Z,11.26
2022-11-09T23:31:27.655Z,11.34
2022-11-09T23:39:02.705Z,11.39
2022-11-09T23:46:36.716Z,11.43
2022-11-09T23:54:11.872Z,11.38
